Gildeskaal — LLDI — position and weather

sailwx.info

Track history (hours):
 
Tides and Currents Weather Stations Pressure Air Temp Water Temp Dewpoint Dewpoint Depression Visibility Wind Speed Wind Dir Waves Ship Positions

Gildeskaal

Last reported at 2015-Jul-03 11:33 UTC. Time now 2015-Jul-03 12:27 UTC.
Position N 67°08' E 013°59'.

Length 52 m; draft 3.2 m.

Type: Ship. MMSI: 259680000.

Date/timePositionNaut miles runAvg speedWind from/ knotsBaromVisibWave heightAir tempDewpointWater temp
2015-Jul-03 11:33N 67°08' E 013°59'3 3.2
2015-Jul-03 10:31N 67°05' E 014°03'2 1.7
2015-Jul-03 09:33N 67°06' E 013°59'3 2.5
2015-Jul-03 08:33N 67°08' E 013°59'2 1.6
2015-Jul-03 07:33N 67°07' E 013°58'2 1.1
2015-Jul-03 05:33N 67°05' E 014°03'3 3.4
2015-Jul-03 04:33N 67°08' E 013°59'0 0.0
2015-Jul-03 03:33N 67°08' E 013°59'0 0.0
2015-Jul-03 02:33N 67°08' E 013°59'0 0.0
2015-Jul-03 01:33N 67°08' E 013°59'0 0.0
2015-Jul-03 00:33N 67°08' E 013°59'0 0.0
2015-Jul-02 23:33N 67°08' E 013°59'0 0.0
2015-Jul-02 22:33N 67°08' E 013°59'0 0.0
2015-Jul-02 21:33N 67°08' E 013°59'0 0.0
2015-Jul-02 20:33N 67°08' E 013°59'0 0.0
2015-Jul-02 19:33N 67°08' E 013°59'3 3.3
2015-Jul-02 18:33N 67°05' E 014°03'1 1.0
2015-Jul-02 17:33N 67°05' E 013°60'0 0.4
2015-Jul-02 16:33N 67°06' E 013°59'3 2.7
2015-Jul-02 15:33N 67°08' E 013°59'4 3.0
2015-Jul-02 14:20N 67°05' E 014°03'0 0.5
2015-Jul-02 13:32N 67°05' E 014°02'3 3.6
2015-Jul-02 12:33N 67°08' E 013°59'0 0.0
2015-Jul-02 11:33N 67°08' E 013°59'3 2.5
2015-Jul-02 10:33N 67°06' E 013°59'0 0.2
2015-Jul-02 09:34N 67°06' E 013°59'2 2.4
2015-Jul-02 08:33N 67°08' E 013°59'2 1.6
2015-Jul-02 07:33N 67°07' E 013°59'2 1.0
2015-Jul-02 05:31N 67°05' E 014°02'3 3.6
2015-Jul-02 04:33N 67°08' E 013°59'0 0.0
2015-Jul-02 03:33N 67°08' E 013°59'0 0.0
2015-Jul-02 02:33N 67°08' E 013°59'0 0.0
2015-Jul-02 01:33N 67°08' E 013°59'0 0.0
2015-Jul-02 00:33N 67°08' E 013°59'0 0.0
2015-Jul-01 23:33N 67°08' E 013°59'0 0.0
2015-Jul-01 22:33N 67°08' E 013°59'0 0.0
2015-Jul-01 21:33N 67°08' E 013°59'0 0.0
2015-Jul-01 20:33N 67°08' E 013°59'0 0.0
2015-Jul-01 19:33N 67°08' E 013°59'4 4.0
2015-Jul-01 18:33N 67°05' E 014°04'2 2.3
2015-Jul-01 17:33N 67°06' E 013°59'1 0.9
2015-Jul-01 16:33N 67°05' E 014°00'3 3.0
2015-Jul-01 15:33N 67°08' E 013°59'3 1.7
2015-Jul-01 13:29N 67°05' E 014°02'3 3.7
2015-Jul-01 12:33N 67°08' E 013°59'0 0.0
2015-Jul-01 11:33N 67°08' E 013°59'3 2.9
2015-Jul-01 10:32N 67°05' E 013°60'1 0.7
2015-Jul-01 09:33N 67°06' E 013°59'2 2.5
2015-Jul-01 08:33N 67°08' E 013°59'2 2.1
2015-Jul-01 07:33N 67°06' E 013°59'2 0.9
2015-Jul-01 05:33N 67°05' E 014°02'3 3.4
2015-Jul-01 04:33N 67°08' E 013°59'0 0.0
2015-Jul-01 03:33N 67°08' E 013°59'0 0.0
2015-Jul-01 02:33N 67°08' E 013°59'0 0.0
2015-Jul-01 01:33N 67°08' E 013°59'0 0.0
2015-Jul-01 00:33N 67°08' E 013°59'0 0.0
2015-Jun-30 23:33N 67°08' E 013°59'0 0.0
2015-Jun-30 22:33N 67°08' E 013°59'0 0.0
2015-Jun-30 21:33N 67°08' E 013°59'0 0.0
2015-Jun-30 20:33N 67°08' E 013°59'0 0.0
2015-Jun-30 19:33N 67°08' E 013°59'3 2.9
2015-Jun-30 18:26N 67°05' E 014°03'2 2.6
2015-Jun-30 17:33N 67°07' E 013°59'2 1.8
2015-Jun-30 16:33N 67°05' E 013°60'3 3.0
2015-Jun-30 15:33N 67°08' E 013°59'4 3.0
2015-Jun-30 14:19N 67°05' E 014°04'0 0.1
2015-Jun-30 13:33N 67°05' E 014°04'4 3.8
2015-Jun-30 12:33N 67°08' E 013°59'0 0.0
2015-Jun-30 11:33N 67°08' E 013°59'3 3.1
2015-Jun-30 10:33N 67°05' E 014°01'1 1.2
2015-Jun-30 09:32N 67°06' E 013°59'2 2.2
2015-Jun-30 08:33N 67°08' E 013°59'2 1.8
2015-Jun-30 07:33N 67°06' E 013°59'2 1.0
2015-Jun-30 05:32N 67°05' E 014°02'3 3.5
2015-Jun-30 04:33N 67°08' E 013°59'0 0.0
2015-Jun-30 03:33N 67°08' E 013°59'0 0.0
2015-Jun-30 02:33N 67°08' E 013°59'0 0.0
2015-Jun-30 01:33N 67°08' E 013°59'0 0.0
2015-Jun-30 00:33N 67°08' E 013°59'0 0.0
2015-Jun-29 23:33N 67°08' E 013°59'0 0.0
2015-Jun-29 22:33N 67°08' E 013°59'0 0.0
2015-Jun-29 21:33N 67°08' E 013°59'0 0.0
2015-Jun-29 20:33N 67°08' E 013°59'1 0.5
2015-Jun-29 19:33N 67°08' E 013°59'3 2.9
2015-Jun-29 18:31N 67°05' E 014°02'1 0.7
2015-Jun-29 17:33N 67°05' E 014°01'1 0.6
2015-Jun-29 16:33N 67°05' E 013°59'3 2.8
2015-Jun-29 15:33N 67°08' E 013°59'4 3.3
2015-Jun-29 14:25N 67°05' E 014°04'0 0.2
2015-Jun-29 13:29N 67°05' E 014°04'4 4.0
2015-Jun-29 12:33N 67°08' E 013°58'2 0.7
2015-Jun-29 09:33N 67°06' E 013°59'3 2.6
2015-Jun-29 08:33N 67°08' E 013°59'1 1.5
2015-Jun-29 07:33N 67°07' E 013°59'2 1.1
2015-Jun-29 05:32N 67°05' E 014°02'3 3.4
2015-Jun-29 04:33N 67°08' E 013°59'0 0.0
2015-Jun-29 03:33N 67°08' E 013°59'0 0.0
2015-Jun-29 02:33N 67°08' E 013°59'0 0.0
2015-Jun-29 01:33N 67°08' E 013°59'0 0.0
2015-Jun-29 00:33N 67°08' E 013°59'0 0.0
2015-Jun-28 23:33N 67°08' E 013°59'0 0.0
2015-Jun-28 22:33N 67°08' E 013°59'0 0.0
2015-Jun-28 21:33N 67°08' E 013°59'0 0.0
2015-Jun-28 20:33N 67°08' E 013°59'0 0.0
2015-Jun-28 19:33N 67°08' E 013°59'4 3.9
2015-Jun-28 18:33N 67°05' E 014°04'1 0.8
2015-Jun-28 17:34N 67°05' E 014°02'2 1.6
2015-Jun-28 16:33N 67°06' E 013°59'2 1.5
2015-Jun-28 15:24N 67°05' E 014°03'3 3.8
2015-Jun-28 14:33N 67°08' E 013°59'2 2.4
2015-Jun-28 13:33N 67°06' E 013°59'2 0.4
2015-Jun-28 08:33N 67°05' E 014°04'3 2.5
2015-Jun-28 07:33N 67°07' E 013°59'3 0.2
2015-Jun-27 17:33N 67°04' E 014°04'3 3.5
2015-Jun-27 16:33N 67°07' E 013°59'2 2.1
2015-Jun-27 15:33N 67°05' E 014°00'1 0.5
2015-Jun-27 14:33N 67°05' E 014°02'1 0.3
2015-Jun-27 09:33N 67°06' E 013°58'3 2.7
2015-Jun-27 08:33N 67°08' E 013°59'2 1.6
2015-Jun-27 07:33N 67°07' E 013°59'2 2.0
2015-Jun-27 06:29N 67°05' E 014°02'3 3.7
2015-Jun-27 05:33N 67°08' E 013°59'0 0.0
2015-Jun-27 04:33N 67°08' E 013°59'0 0.0
2015-Jun-27 03:33N 67°08' E 013°59'0 0.0
2015-Jun-27 02:33N 67°08' E 013°59'0 0.0
2015-Jun-27 01:33N 67°08' E 013°59'0 0.0
2015-Jun-27 00:33N 67°08' E 013°59'0 0.0
2015-Jun-26 23:33N 67°08' E 013°59'0 0.0
2015-Jun-26 22:33N 67°08' E 013°59'0 0.0
2015-Jun-26 21:33N 67°08' E 013°59'0 0.0
2015-Jun-26 20:33N 67°08' E 013°59'0 0.0
2015-Jun-26 19:33N 67°08' E 013°59'3 3.5
2015-Jun-26 18:33N 67°05' E 014°02'0 0.4
2015-Jun-26 17:33N 67°05' E 014°01'1 0.5
2015-Jun-26 15:33N 67°06' E 013°59'2 1.5
2015-Jun-26 14:32N 67°05' E 014°03'0 0.1
2015-Jun-26 13:30N 67°05' E 014°03'3 3.5
2015-Jun-26 12:33N 67°08' E 013°59'0 0.0
2015-Jun-26 11:33N 67°08' E 013°59'4 3.1
2015-Jun-26 10:18N 67°05' E 014°04'2 2.8
2015-Jun-26 09:33N 67°06' E 013°59'3 2.6
2015-Jun-26 08:33N 67°08' E 013°59'2 1.7
2015-Jun-26 07:33N 67°07' E 013°59'2 1.0
2015-Jun-26 05:30N 67°05' E 014°02'3 3.6
2015-Jun-26 04:33N 67°08' E 013°59'0 0.0
2015-Jun-26 03:33N 67°08' E 013°59'0 0.0
2015-Jun-26 02:33N 67°08' E 013°59'0 0.0
2015-Jun-26 01:33N 67°08' E 013°59'0 0.0
2015-Jun-26 00:33N 67°08' E 013°59'0 0.0
2015-Jun-25 23:33N 67°08' E 013°59'0 0.0
2015-Jun-25 22:33N 67°08' E 013°59'0 0.0
2015-Jun-25 21:33N 67°08' E 013°59'0 0.0
2015-Jun-25 20:33N 67°08' E 013°59'0 0.0
2015-Jun-25 19:33N 67°08' E 013°59'4 3.7
2015-Jun-25 18:33N 67°05' E 014°04'2 2.3
2015-Jun-25 17:33N 67°06' E 013°59'1 0.6
2015-Jun-25 16:33N 67°05' E 013°59'3 2.8
2015-Jun-25 15:33N 67°08' E 013°59'3 2.6
2015-Jun-25 14:33N 67°06' E 013°59'0 0.4
2015-Jun-25 13:33N 67°06' E 013°59'2 2.3
2015-Jun-25 12:33N 67°08' E 013°59'0 0.0
2015-Jun-25 11:33N 67°08' E 013°59'3 2.7
2015-Jun-25 10:33N 67°06' E 013°59'1 0.5
2015-Jun-25 09:33N 67°06' E 013°58'2 2.2
2015-Jun-25 08:33N 67°08' E 013°59'2 1.5
2015-Jun-25 07:33N 67°07' E 013°59'2 1.0
2015-Jun-25 05:29N 67°05' E 014°02'3 3.7
2015-Jun-25 04:33N 67°08' E 013°59'0 0.0
2015-Jun-25 03:33N 67°08' E 013°59'0 0.0
2015-Jun-25 02:33N 67°08' E 013°59'0 0.0
2015-Jun-25 01:33N 67°08' E 013°59'0 0.0
2015-Jun-25 00:33N 67°08' E 013°59'0 0.0
2015-Jun-24 23:33N 67°08' E 013°59'0 0.0
2015-Jun-24 22:33N 67°08' E 013°59'0 0.0
2015-Jun-24 21:33N 67°08' E 013°59'0 0.0
2015-Jun-24 20:33N 67°08' E 013°59'0 0.0
2015-Jun-24 19:33N 67°08' E 013°59'4 4.1
2015-Jun-24 18:32N 67°05' E 014°04'3 3.2
2015-Jun-24 17:33N 67°07' E 013°59'2 1.8
2015-Jun-24 16:32N 67°05' E 013°60'3 3.1
2015-Jun-24 15:33N 67°08' E 013°59'3 3.2
2015-Jun-24 14:33N 67°05' E 014°03'1 0.6
2015-Jun-24 13:33N 67°05' E 014°04'4 3.8
2015-Jun-24 12:33N 67°08' E 013°59'0 0.0
2015-Jun-24 11:33N 67°08' E 013°59'2 2.5
2015-Jun-24 10:33N 67°06' E 013°59'0 0.1
2015-Jun-24 09:32N 67°06' E 013°59'2 2.5
2015-Jun-24 08:33N 67°08' E 013°59'2 2.0
2015-Jun-24 07:33N 67°06' E 013°59'2 0.9
2015-Jun-24 05:29N 67°05' E 014°02'3 3.7
2015-Jun-24 04:33N 67°08' E 013°59'0 0.0
2015-Jun-24 03:33N 67°08' E 013°59'0 0.0
2015-Jun-24 02:33N 67°08' E 013°59'0 0.0
2015-Jun-24 01:33N 67°08' E 013°59'0 0.0
2015-Jun-24 00:33N 67°08' E 013°59'0 0.0
2015-Jun-23 23:33N 67°08' E 013°59'0 0.0
2015-Jun-23 22:33N 67°08' E 013°59'0 0.0
2015-Jun-23 21:33N 67°08' E 013°59'0 0.0
2015-Jun-23 20:33N 67°08' E 013°59'0 0.0
2015-Jun-23 19:33N 67°08' E 013°59'2 4.3
2015-Jun-23 19:05N 67°06' E 013°59'  
Track history (hours):
 
Tides and Currents Weather Stations Pressure Air Temp Water Temp Dewpoint Dewpoint Depression Visibility Wind Speed Wind Dir Waves Ship Positions

Gildeskaal

Last reported at 2015-Jul-03 11:33 UTC. Time now 2015-Jul-03 12:27 UTC.
Position N 67°08' E 013°59'.

Length 52 m; draft 3.2 m.

Type: Ship. MMSI: 259680000.

Date/timePositionNaut miles runAvg speedWind from/ knotsBaromVisibWave heightAir tempDewpointWater temp
2015-Jul-03 11:33N 67°08' E 013°59'3 3.2
2015-Jul-03 10:31N 67°05' E 014°03'2 1.7
2015-Jul-03 09:33N 67°06' E 013°59'3 2.5
2015-Jul-03 08:33N 67°08' E 013°59'2 1.6
2015-Jul-03 07:33N 67°07' E 013°58'2 1.1
2015-Jul-03 05:33N 67°05' E 014°03'3 3.4
2015-Jul-03 04:33N 67°08' E 013°59'0 0.0
2015-Jul-03 03:33N 67°08' E 013°59'0 0.0
2015-Jul-03 02:33N 67°08' E 013°59'0 0.0
2015-Jul-03 01:33N 67°08' E 013°59'0 0.0
2015-Jul-03 00:33N 67°08' E 013°59'0 0.0
2015-Jul-02 23:33N 67°08' E 013°59'0 0.0
2015-Jul-02 22:33N 67°08' E 013°59'0 0.0
2015-Jul-02 21:33N 67°08' E 013°59'0 0.0
2015-Jul-02 20:33N 67°08' E 013°59'0 0.0
2015-Jul-02 19:33N 67°08' E 013°59'3 3.3
2015-Jul-02 18:33N 67°05' E 014°03'1 1.0
2015-Jul-02 17:33N 67°05' E 013°60'0 0.4
2015-Jul-02 16:33N 67°06' E 013°59'3 2.7
2015-Jul-02 15:33N 67°08' E 013°59'4 3.0
2015-Jul-02 14:20N 67°05' E 014°03'0 0.5
2015-Jul-02 13:32N 67°05' E 014°02'3 3.6
2015-Jul-02 12:33N 67°08' E 013°59'0 0.0
2015-Jul-02 11:33N 67°08' E 013°59'3 2.5
2015-Jul-02 10:33N 67°06' E 013°59'0 0.2
2015-Jul-02 09:34N 67°06' E 013°59'2 2.4
2015-Jul-02 08:33N 67°08' E 013°59'2 1.6
2015-Jul-02 07:33N 67°07' E 013°59'2 1.0
2015-Jul-02 05:31N 67°05' E 014°02'3 3.6
2015-Jul-02 04:33N 67°08' E 013°59'0 0.0
2015-Jul-02 03:33N 67°08' E 013°59'0 0.0
2015-Jul-02 02:33N 67°08' E 013°59'0 0.0
2015-Jul-02 01:33N 67°08' E 013°59'0 0.0
2015-Jul-02 00:33N 67°08' E 013°59'0 0.0
2015-Jul-01 23:33N 67°08' E 013°59'0 0.0
2015-Jul-01 22:33N 67°08' E 013°59'0 0.0
2015-Jul-01 21:33N 67°08' E 013°59'0 0.0
2015-Jul-01 20:33N 67°08' E 013°59'0 0.0
2015-Jul-01 19:33N 67°08' E 013°59'4 4.0
2015-Jul-01 18:33N 67°05' E 014°04'2 2.3
2015-Jul-01 17:33N 67°06' E 013°59'1 0.9
2015-Jul-01 16:33N 67°05' E 014°00'3 3.0
2015-Jul-01 15:33N 67°08' E 013°59'3 1.7
2015-Jul-01 13:29N 67°05' E 014°02'3 3.7
2015-Jul-01 12:33N 67°08' E 013°59'0 0.0
2015-Jul-01 11:33N 67°08' E 013°59'3 2.9
2015-Jul-01 10:32N 67°05' E 013°60'1 0.7
2015-Jul-01 09:33N 67°06' E 013°59'2 2.5
2015-Jul-01 08:33N 67°08' E 013°59'2 2.1
2015-Jul-01 07:33N 67°06' E 013°59'2 0.9
2015-Jul-01 05:33N 67°05' E 014°02'3 3.4
2015-Jul-01 04:33N 67°08' E 013°59'0 0.0
2015-Jul-01 03:33N 67°08' E 013°59'0 0.0
2015-Jul-01 02:33N 67°08' E 013°59'0 0.0
2015-Jul-01 01:33N 67°08' E 013°59'0 0.0
2015-Jul-01 00:33N 67°08' E 013°59'0 0.0
2015-Jun-30 23:33N 67°08' E 013°59'0 0.0
2015-Jun-30 22:33N 67°08' E 013°59'0 0.0
2015-Jun-30 21:33N 67°08' E 013°59'0 0.0
2015-Jun-30 20:33N 67°08' E 013°59'0 0.0
2015-Jun-30 19:33N 67°08' E 013°59'3 2.9
2015-Jun-30 18:26N 67°05' E 014°03'2 2.6
2015-Jun-30 17:33N 67°07' E 013°59'2 1.8
2015-Jun-30 16:33N 67°05' E 013°60'3 3.0
2015-Jun-30 15:33N 67°08' E 013°59'4 3.0
2015-Jun-30 14:19N 67°05' E 014°04'0 0.1
2015-Jun-30 13:33N 67°05' E 014°04'4 3.8
2015-Jun-30 12:33N 67°08' E 013°59'0 0.0
2015-Jun-30 11:33N 67°08' E 013°59'3 3.1
2015-Jun-30 10:33N 67°05' E 014°01'1 1.2
2015-Jun-30 09:32N 67°06' E 013°59'2 2.2
2015-Jun-30 08:33N 67°08' E 013°59'2 1.8
2015-Jun-30 07:33N 67°06' E 013°59'2 1.0
2015-Jun-30 05:32N 67°05' E 014°02'3 3.5
2015-Jun-30 04:33N 67°08' E 013°59'0 0.0
2015-Jun-30 03:33N 67°08' E 013°59'0 0.0
2015-Jun-30 02:33N 67°08' E 013°59'0 0.0
2015-Jun-30 01:33N 67°08' E 013°59'0 0.0
2015-Jun-30 00:33N 67°08' E 013°59'0 0.0
2015-Jun-29 23:33N 67°08' E 013°59'0 0.0
2015-Jun-29 22:33N 67°08' E 013°59'0 0.0
2015-Jun-29 21:33N 67°08' E 013°59'0 0.0
2015-Jun-29 20:33N 67°08' E 013°59'1 0.5
2015-Jun-29 19:33N 67°08' E 013°59'3 2.9
2015-Jun-29 18:31N 67°05' E 014°02'1 0.7
2015-Jun-29 17:33N 67°05' E 014°01'1 0.6
2015-Jun-29 16:33N 67°05' E 013°59'3 2.8
2015-Jun-29 15:33N 67°08' E 013°59'4 3.3
2015-Jun-29 14:25N 67°05' E 014°04'0 0.2
2015-Jun-29 13:29N 67°05' E 014°04'4 4.0
2015-Jun-29 12:33N 67°08' E 013°58'2 0.7
2015-Jun-29 09:33N 67°06' E 013°59'3 2.6
2015-Jun-29 08:33N 67°08' E 013°59'1 1.5
2015-Jun-29 07:33N 67°07' E 013°59'2 1.1
2015-Jun-29 05:32N 67°05' E 014°02'3 3.4
2015-Jun-29 04:33N 67°08' E 013°59'0 0.0
2015-Jun-29 03:33N 67°08' E 013°59'0 0.0
2015-Jun-29 02:33N 67°08' E 013°59'0 0.0
2015-Jun-29 01:33N 67°08' E 013°59'0 0.0
2015-Jun-29 00:33N 67°08' E 013°59'0 0.0
2015-Jun-28 23:33N 67°08' E 013°59'0 0.0
2015-Jun-28 22:33N 67°08' E 013°59'0 0.0
2015-Jun-28 21:33N 67°08' E 013°59'0 0.0
2015-Jun-28 20:33N 67°08' E 013°59'0 0.0
2015-Jun-28 19:33N 67°08' E 013°59'4 3.9
2015-Jun-28 18:33N 67°05' E 014°04'1 0.8
2015-Jun-28 17:34N 67°05' E 014°02'2 1.6
2015-Jun-28 16:33N 67°06' E 013°59'2 1.5
2015-Jun-28 15:24N 67°05' E 014°03'3 3.8
2015-Jun-28 14:33N 67°08' E 013°59'2 2.4
2015-Jun-28 13:33N 67°06' E 013°59'2 0.4
2015-Jun-28 08:33N 67°05' E 014°04'3 2.5
2015-Jun-28 07:33N 67°07' E 013°59'3 0.2
2015-Jun-27 17:33N 67°04' E 014°04'3 3.5
2015-Jun-27 16:33N 67°07' E 013°59'2 2.1
2015-Jun-27 15:33N 67°05' E 014°00'1 0.5
2015-Jun-27 14:33N 67°05' E 014°02'1 0.3
2015-Jun-27 09:33N 67°06' E 013°58'3 2.7
2015-Jun-27 08:33N 67°08' E 013°59'2 1.6
2015-Jun-27 07:33N 67°07' E 013°59'2 2.0
2015-Jun-27 06:29N 67°05' E 014°02'3 3.7
2015-Jun-27 05:33N 67°08' E 013°59'0 0.0
2015-Jun-27 04:33N 67°08' E 013°59'0 0.0
2015-Jun-27 03:33N 67°08' E 013°59'0 0.0
2015-Jun-27 02:33N 67°08' E 013°59'0 0.0
2015-Jun-27 01:33N 67°08' E 013°59'0 0.0
2015-Jun-27 00:33N 67°08' E 013°59'0 0.0
2015-Jun-26 23:33N 67°08' E 013°59'0 0.0
2015-Jun-26 22:33N 67°08' E 013°59'0 0.0
2015-Jun-26 21:33N 67°08' E 013°59'0 0.0
2015-Jun-26 20:33N 67°08' E 013°59'0 0.0
2015-Jun-26 19:33N 67°08' E 013°59'3 3.5
2015-Jun-26 18:33N 67°05' E 014°02'0 0.4
2015-Jun-26 17:33N 67°05' E 014°01'1 0.5
2015-Jun-26 15:33N 67°06' E 013°59'2 1.5
2015-Jun-26 14:32N 67°05' E 014°03'0 0.1
2015-Jun-26 13:30N 67°05' E 014°03'3 3.5
2015-Jun-26 12:33N 67°08' E 013°59'0 0.0
2015-Jun-26 11:33N 67°08' E 013°59'4 3.1
2015-Jun-26 10:18N 67°05' E 014°04'2 2.8
2015-Jun-26 09:33N 67°06' E 013°59'3 2.6
2015-Jun-26 08:33N 67°08' E 013°59'2 1.7
2015-Jun-26 07:33N 67°07' E 013°59'2 1.0
2015-Jun-26 05:30N 67°05' E 014°02'3 3.6
2015-Jun-26 04:33N 67°08' E 013°59'0 0.0
2015-Jun-26 03:33N 67°08' E 013°59'0 0.0
2015-Jun-26 02:33N 67°08' E 013°59'0 0.0
2015-Jun-26 01:33N 67°08' E 013°59'0 0.0
2015-Jun-26 00:33N 67°08' E 013°59'0 0.0
2015-Jun-25 23:33N 67°08' E 013°59'0 0.0
2015-Jun-25 22:33N 67°08' E 013°59'0 0.0
2015-Jun-25 21:33N 67°08' E 013°59'0 0.0
2015-Jun-25 20:33N 67°08' E 013°59'0 0.0
2015-Jun-25 19:33N 67°08' E 013°59'4 3.7
2015-Jun-25 18:33N 67°05' E 014°04'2 2.3
2015-Jun-25 17:33N 67°06' E 013°59'1 0.6
2015-Jun-25 16:33N 67°05' E 013°59'3 2.8
2015-Jun-25 15:33N 67°08' E 013°59'3 2.6
2015-Jun-25 14:33N 67°06' E 013°59'0 0.4
2015-Jun-25 13:33N 67°06' E 013°59'2 2.3
2015-Jun-25 12:33N 67°08' E 013°59'0 0.0
2015-Jun-25 11:33N 67°08' E 013°59'3 2.7
2015-Jun-25 10:33N 67°06' E 013°59'1 0.5
2015-Jun-25 09:33N 67°06' E 013°58'2 2.2
2015-Jun-25 08:33N 67°08' E 013°59'2 1.5
2015-Jun-25 07:33N 67°07' E 013°59'2 1.0
2015-Jun-25 05:29N 67°05' E 014°02'3 3.7
2015-Jun-25 04:33N 67°08' E 013°59'0 0.0
2015-Jun-25 03:33N 67°08' E 013°59'0 0.0
2015-Jun-25 02:33N 67°08' E 013°59'0 0.0
2015-Jun-25 01:33N 67°08' E 013°59'0 0.0
2015-Jun-25 00:33N 67°08' E 013°59'0 0.0
2015-Jun-24 23:33N 67°08' E 013°59'0 0.0
2015-Jun-24 22:33N 67°08' E 013°59'0 0.0
2015-Jun-24 21:33N 67°08' E 013°59'0 0.0
2015-Jun-24 20:33N 67°08' E 013°59'0 0.0
2015-Jun-24 19:33N 67°08' E 013°59'4 4.1
2015-Jun-24 18:32N 67°05' E 014°04'3 3.2
2015-Jun-24 17:33N 67°07' E 013°59'2 1.8
2015-Jun-24 16:32N 67°05' E 013°60'3 3.1
2015-Jun-24 15:33N 67°08' E 013°59'3 3.2
2015-Jun-24 14:33N 67°05' E 014°03'1 0.6
2015-Jun-24 13:33N 67°05' E 014°04'4 3.8
2015-Jun-24 12:33N 67°08' E 013°59'0 0.0
2015-Jun-24 11:33N 67°08' E 013°59'2 2.5
2015-Jun-24 10:33N 67°06' E 013°59'0 0.1
2015-Jun-24 09:32N 67°06' E 013°59'2 2.5
2015-Jun-24 08:33N 67°08' E 013°59'2 2.0
2015-Jun-24 07:33N 67°06' E 013°59'2 0.9
2015-Jun-24 05:29N 67°05' E 014°02'3 3.7
2015-Jun-24 04:33N 67°08' E 013°59'0 0.0
2015-Jun-24 03:33N 67°08' E 013°59'0 0.0
2015-Jun-24 02:33N 67°08' E 013°59'0 0.0
2015-Jun-24 01:33N 67°08' E 013°59'0 0.0
2015-Jun-24 00:33N 67°08' E 013°59'0 0.0
2015-Jun-23 23:33N 67°08' E 013°59'0 0.0
2015-Jun-23 22:33N 67°08' E 013°59'0 0.0
2015-Jun-23 21:33N 67°08' E 013°59'0 0.0
2015-Jun-23 20:33N 67°08' E 013°59'0 0.0
2015-Jun-23 19:33N 67°08' E 013°59'2 4.3
2015-Jun-23 19:05N 67°06' E 013°59'  

Dump ship's entire track history